Time;durP1;ratioP1;P1;durP2;ratioP2;P2;SDS_P1;SDS_P2;PMS_P1;PMS_P2;Temp;Humidity;BMP_temperature;BMP_pressure;BME280_temperature;BME280_humidity;BME280_pressure;Samples;Min_cycle;Max_cycle;Signal;HPM_P1;HPM_P2
2023/05/28 00:01:24;;;;;;;6.22;5.22;;;;;;;10.82;81.44;100502.13;10415433;28;20038;-71
2023/05/28 00:06:26;;;;;;;10.05;5.95;;;;;;;10.92;80.22;100503.63;10415580;28;20041;-71
2023/05/28 00:11:28;;;;;;;7.57;5.70;;;;;;;10.67;82.20;100491.97;10415447;28;20116;-71
2023/05/28 00:16:29;;;;;;;8.02;5.97;;;;;;;10.81;81.33;100493.38;10414948;28;20052;-71
2023/05/28 00:21:33;;;;;;;7.18;5.57;;;;;;;10.85;80.35;100483.66;10414217;28;20041;-71
2023/05/28 00:26:36;;;;;;;6.97;5.35;;;;;;;10.59;81.56;100476.44;10414782;28;20452;-71
2023/05/28 00:31:38;;;;;;;6.93;4.82;;;;;;;10.64;81.84;100477.16;10420820;28;20045;-71
2023/05/28 00:36:40;;;;;;;6.97;5.88;;;;;;;10.49;82.80;100464.38;10422756;28;20049;-71
2023/05/28 00:41:42;;;;;;;8.48;6.22;;;;;;;10.49;82.56;100462.66;10421847;28;20473;-71
2023/05/28 00:46:45;;;;;;;7.85;5.63;;;;;;;10.34;83.64;100468.25;10421370;28;20140;-71
2023/05/28 00:51:47;;;;;;;8.93;5.40;;;;;;;10.03;85.86;100463.69;10420524;28;20053;-71
2023/05/28 00:56:50;;;;;;;6.50;5.90;;;;;;;10.04;85.97;100460.16;10420549;28;20055;-71
2023/05/28 01:01:53;;;;;;;8.15;4.78;;;;;;;10.16;84.64;100469.53;10421387;28;20049;-71
2023/05/28 01:06:56;;;;;;;7.03;6.15;;;;;;;10.01;86.25;100459.38;10419485;28;20073;-70
2023/05/28 01:11:59;;;;;;;7.00;5.55;;;;;;;10.13;84.58;100448.56;10420564;28;20103;-71
2023/05/28 01:17:01;;;;;;;6.93;6.03;;;;;;;10.22;83.68;100452.75;10419334;28;20068;-70
2023/05/28 01:22:04;;;;;;;7.55;6.47;;;;;;;10.13;83.68;100452.97;10419472;28;20057;-70
2023/05/28 01:27:07;;;;;;;6.30;5.55;;;;;;;9.93;85.04;100451.66;10418468;28;20076;-71
2023/05/28 01:32:08;;;;;;;9.05;6.07;;;;;;;9.80;86.03;100453.69;10418933;28;20475;-70
2023/05/28 01:37:16;;;;;;;7.07;5.68;;;;;;;9.60;87.25;100448.00;10419476;28;20045;-70
2023/05/28 01:42:18;;;;;;;5.68;4.95;;;;;;;9.55;87.80;100450.72;10420793;28;20475;-70
2023/05/28 01:47:20;;;;;;;10.75;5.90;;;;;;;9.44;88.64;100451.88;10417384;28;20046;-70
2023/05/28 01:52:22;;;;;;;9.45;6.05;;;;;;;9.48;87.89;100446.50;10417517;28;20053;-70
2023/05/28 01:57:24;;;;;;;7.95;5.43;;;;;;;9.57;86.59;100441.06;10417615;28;20128;-70
2023/05/28 02:02:26;;;;;;;7.13;5.43;;;;;;;9.43;87.47;100439.63;10417456;28;20049;-70
2023/05/28 02:07:28;;;;;;;7.53;6.28;;;;;;;9.43;86.86;100437.88;10418413;28;20099;-70
2023/05/28 02:12:30;;;;;;;8.20;5.57;;;;;;;9.66;84.99;100437.38;10416614;28;20095;-70
2023/05/28 02:17:32;;;;;;;5.80;4.78;;;;;;;9.41;86.24;100431.78;10416486;28;20076;-70
2023/05/28 02:22:33;;;;;;;6.60;5.20;;;;;;;9.04;88.75;100435.16;10416779;28;20072;-71
2023/05/28 02:27:35;;;;;;;6.45;4.93;;;;;;;8.85;90.72;100436.38;10417348;28;20073;-70
2023/05/28 02:32:37;;;;;;;6.47;5.35;;;;;;;8.83;90.84;100425.91;10417340;28;20446;-70
2023/05/28 02:37:39;;;;;;;6.97;5.82;;;;;;;8.99;89.53;100409.91;10418527;28;20048;-70
2023/05/28 02:42:42;;;;;;;6.22;4.65;;;;;;;8.92;89.78;100422.25;10416135;28;20050;-71
2023/05/28 02:47:47;;;;;;;6.18;5.05;;;;;;;8.81;90.18;100419.84;10417083;28;20057;-70
2023/05/28 02:52:51;;;;;;;7.32;5.50;;;;;;;8.79;90.23;100423.38;10415101;28;20053;-71
2023/05/28 02:57:53;;;;;;;7.22;5.57;;;;;;;8.91;89.10;100415.28;10416611;28;20053;-70
2023/05/28 03:02:56;;;;;;;8.32;5.40;;;;;;;8.78;89.58;100425.13;10416955;28;20091;-70
2023/05/28 03:07:58;;;;;;;7.82;5.75;;;;;;;8.74;90.44;100415.59;10415376;28;20049;-70
2023/05/28 03:13:00;;;;;;;7.75;6.80;;;;;;;8.77;89.84;100417.31;10416571;28;20056;-70
2023/05/28 03:18:05;;;;;;;8.90;6.28;;;;;;;8.58;91.64;100412.38;10416794;28;20455;-70
2023/05/28 03:23:11;;;;;;;9.52;5.93;;;;;;;8.50;93.36;100424.78;10414654;28;20046;-70
2023/05/28 03:28:32;;;;;;;10.15;6.63;;;;;;;8.45;94.24;100429.19;10414716;28;20050;-70
2023/05/28 03:33:50;;;;;;;6.88;5.78;;;;;;;8.50;94.98;100427.41;10416765;28;20419;-70
2023/05/28 03:38:52;;;;;;;7.68;5.85;;;;;;;8.54;93.71;100418.59;10414350;28;20050;-69
2023/05/28 03:43:56;;;;;;;14.05;6.53;;;;;;;8.53;94.04;100427.31;10414510;28;20462;-70
2023/05/28 03:48:58;;;;;;;6.43;5.80;;;;;;;8.67;93.54;100431.47;10414080;28;20117;-70
2023/05/28 03:54:01;;;;;;;6.10;5.43;;;;;;;8.71;92.61;100430.50;10415415;28;20569;-70
2023/05/28 03:59:03;;;;;;;7.07;5.38;;;;;;;8.77;91.65;100417.31;10415631;28;20115;-70
2023/05/28 04:04:05;;;;;;;6.10;5.30;;;;;;;8.95;90.63;100424.84;10419646;28;20046;-69
2023/05/28 04:09:08;;;;;;;7.68;5.38;;;;;;;8.88;90.41;100417.09;10421868;28;20049;-70
2023/05/28 04:14:10;;;;;;;7.45;5.65;;;;;;;9.05;89.67;100417.66;10435480;22;20457;-73
2023/05/28 04:19:12;;;;;;;6.60;5.38;;;;;;;9.10;89.22;100427.16;10421994;28;20045;-73
2023/05/28 04:24:14;;;;;;;6.07;4.93;;;;;;;9.44;87.54;100425.63;10421295;28;20046;-72
2023/05/28 04:29:15;;;;;;;10.75;6.20;;;;;;;9.49;86.05;100414.13;10421444;28;20053;-73
2023/05/28 04:34:17;;;;;;;6.07;5.00;;;;;;;9.93;82.74;100420.16;10421358;28;20045;-72
2023/05/28 04:39:21;;;;;;;7.50;5.80;;;;;;;9.92;83.12;100420.19;10421131;28;20057;-73
2023/05/28 04:44:25;;;;;;;7.65;5.22;;;;;;;9.85;82.84;100416.84;10423454;28;20137;-72
2023/05/28 04:49:29;;;;;;;6.88;4.88;;;;;;;10.08;81.46;100414.53;10407600;28;20430;-73
2023/05/28 04:54:31;;;;;;;5.70;4.68;;;;;;;10.40;80.76;100417.31;10423836;28;20045;-72
2023/05/28 04:59:34;;;;;;;6.68;4.25;;;;;;;10.53;78.75;100411.69;10422070;28;20069;-72
2023/05/28 05:04:36;;;;;;;7.28;4.90;;;;;;;10.70;77.73;100419.16;10420969;28;20045;-72
2023/05/28 05:09:39;;;;;;;8.07;5.20;;;;;;;10.72;75.95;100406.84;10420623;28;20041;-73
2023/05/28 05:14:41;;;;;;;6.43;4.25;;;;;;;10.66;76.99;100408.75;10421339;28;20072;-72
2023/05/28 05:19:43;;;;;;;6.97;4.40;;;;;;;11.03;75.29;100412.16;10422667;28;20037;-73
2023/05/28 05:24:48;;;;;;;6.20;4.38;;;;;;;11.25;73.77;100414.19;10419929;28;20128;-72
2023/05/28 05:29:50;;;;;;;6.13;4.38;;;;;;;11.74;70.89;100399.56;10421149;28;20053;-72
2023/05/28 05:34:52;;;;;;;6.47;4.50;;;;;;;11.83;71.31;100404.59;10420489;28;20048;-72
2023/05/28 05:40:00;;;;;;;5.75;4.07;;;;;;;12.23;70.85;100409.44;10422764;28;20053;-73
2023/05/28 05:45:21;;;;;;;6.22;4.72;;;;;;;13.38;63.10;100410.75;10423518;28;20037;-72
2023/05/28 05:50:25;;;;;;;7.82;4.15;;;;;;;13.45;63.87;100404.28;10420967;28;20100;-73
2023/05/28 05:55:28;;;;;;;6.50;4.32;;;;;;;13.26;63.91;100405.91;10421616;28;20095;-73
2023/05/28 06:00:30;;;;;;;8.88;4.05;;;;;;;14.21;59.15;100405.75;10421786;28;20069;-74
2023/05/28 06:05:35;;;;;;;5.22;3.60;;;;;;;14.89;57.41;100411.72;10421058;28;20045;-73
2023/05/28 06:10:57;;;;;;;5.43;3.78;;;;;;;14.98;56.21;100413.97;10421167;28;20061;-73
2023/05/28 06:15:59;;;;;;;4.28;3.42;;;;;;;15.55;55.52;100414.06;10422652;28;20087;-73
2023/05/28 06:21:03;;;;;;;6.88;3.95;;;;;;;15.46;54.54;100398.59;10422288;28;20197;-74
2023/05/28 06:26:07;;;;;;;4.55;3.70;;;;;;;16.02;54.70;100393.25;10420306;28;20038;-74
2023/05/28 06:31:09;;;;;;;7.35;3.72;;;;;;;16.00;53.61;100400.44;10406349;28;20127;-74
2023/05/28 06:36:12;;;;;;;5.38;4.03;;;;;;;16.16;52.06;100389.97;10422298;28;20060;-74
2023/05/28 06:41:15;;;;;;;6.40;3.38;;;;;;;16.20;53.34;100390.66;10423719;28;20041;-75
2023/05/28 06:46:22;;;;;;;5.93;3.60;;;;;;;16.79;50.84;100400.09;10405037;28;20155;-73
2023/05/28 06:51:24;;;;;;;6.20;3.50;;;;;;;17.67;46.33;100399.78;10419317;28;20132;-74
2023/05/28 06:56:27;;;;;;;7.75;3.33;;;;;;;17.23;48.65;100396.91;10418740;28;20042;-74
2023/05/28 07:01:48;;;;;;;7.15;3.80;;;;;;;17.81;49.58;100391.94;10422103;28;20124;-76
2023/05/28 07:07:15;;;;;;;4.25;2.97;;;;;;;18.00;47.78;100386.44;10422128;28;20050;-74
2023/05/28 07:12:17;;;;;;;3.63;2.83;;;;;;;18.69;44.57;100392.22;10422378;28;20045;-74
2023/05/28 07:17:27;;;;;;;5.55;3.40;;;;;;;18.45;46.83;100392.69;10423902;28;20116;-73
2023/05/28 07:22:29;;;;;;;5.40;3.20;;;;;;;18.62;46.49;100381.91;10422187;28;20418;-74
2023/05/28 07:27:31;;;;;;;3.95;2.85;;;;;;;19.26;44.78;100382.50;10422847;28;20103;-74
2023/05/28 07:32:33;;;;;;;4.35;2.92;;;;;;;19.24;44.39;100386.22;10420853;28;20049;-74
2023/05/28 07:37:38;;;;;;;4.93;3.45;;;;;;;19.48;42.91;100383.78;10422427;28;20056;-74
2023/05/28 07:42:41;;;;;;;4.30;2.97;;;;;;;20.28;42.29;100384.88;10433392;28;20506;-74
2023/05/28 07:47:45;;;;;;;5.15;3.05;;;;;;;20.63;41.74;100387.88;10437626;28;20511;-74
2023/05/28 07:53:07;;;;;;;5.18;3.05;;;;;;;20.07;42.37;100382.66;10434379;28;20080;-74
2023/05/28 07:58:14;;;;;;;5.78;2.80;;;;;;;20.52;40.76;100382.41;10432925;28;20083;-72
2023/05/28 08:03:16;;;;;;;4.60;3.05;;;;;;;19.71;41.02;100379.72;10431723;28;20045;-74
2023/05/28 08:08:23;;;;;;;4.20;2.97;;;;;;;19.94;42.09;100387.09;10413236;28;20514;-74
2023/05/28 08:13:25;;;;;;;3.95;2.25;;;;;;;20.53;38.25;100379.63;10427738;28;20446;-72
2023/05/28 08:18:29;;;;;;;3.60;2.22;;;;;;;20.86;40.84;100375.63;10426790;28;20091;-73
2023/05/28 08:23:34;;;;;;;3.40;2.10;;;;;;;21.15;39.72;100376.25;10425431;28;20052;-73
2023/05/28 08:28:38;;;;;;;4.50;2.40;;;;;;;21.40;37.75;100370.91;10434176;28;20056;-73
2023/05/28 08:33:41;;;;;;;3.03;1.90;;;;;;;21.52;38.25;100361.16;10461322;28;20033;-74
2023/05/28 08:38:43;;;;;;;4.50;2.40;;;;;;;21.65;35.33;100356.63;10407749;28;20057;-74
2023/05/28 08:43:47;;;;;;;4.85;2.17;;;;;;;21.16;37.08;100361.91;10447378;28;20041;-73
2023/05/28 08:48:51;;;;;;;5.82;2.38;;;;;;;22.05;37.74;100355.53;10452256;28;20049;-73
2023/05/28 08:53:54;;;;;;;3.95;2.22;;;;;;;22.04;34.77;100354.63;10468115;28;20520;-73
2023/05/28 08:59:03;;;;;;;3.22;2.00;;;;;;;22.16;34.58;100340.38;10462385;28;20049;-72
2023/05/28 09:04:08;;;;;;;5.10;1.70;;;;;;;22.50;35.94;100347.69;10463971;28;20041;-73
2023/05/28 09:09:14;;;;;;;5.03;1.52;;;;;;;22.96;35.79;100350.34;10462869;28;20049;-73
2023/05/28 09:14:23;;;;;;;3.72;1.65;;;;;;;22.94;32.84;100340.75;10464080;28;20036;-72
2023/05/28 09:19:28;;;;;;;4.47;1.80;;;;;;;23.22;31.33;100328.69;10464319;28;20410;-72
2023/05/28 09:24:32;;;;;;;4.55;2.08;;;;;;;23.67;32.30;100324.13;10463171;28;20045;-73
2023/05/28 09:30:08;;;;;;;7.10;2.08;;;;;;;23.82;32.89;100328.25;10469318;28;20041;-74
2023/05/28 09:35:29;;;;;;;2.80;1.70;;;;;;;23.83;31.13;100326.41;10468022;28;20083;-74
2023/05/28 09:40:37;;;;;;;3.05;1.73;;;;;;;24.42;32.36;100336.69;10453771;28;20044;-75
2023/05/28 09:45:42;;;;;;;4.03;1.80;;;;;;;24.53;29.71;100325.91;10452551;28;20049;-73
2023/05/28 09:50:50;;;;;;;5.03;1.77;;;;;;;23.88;31.76;100318.84;10449497;28;20048;-73
2023/05/28 09:56:02;;;;;;;2.30;1.60;;;;;;;24.57;30.20;100326.47;10463752;28;20067;-74
2023/05/28 10:01:14;;;;;;;2.30;1.83;;;;;;;24.24;29.09;100327.47;10445268;28;20051;-73
2023/05/28 10:06:24;;;;;;;6.00;1.70;;;;;;;24.46;29.78;100316.66;10448379;28;20098;-74
2023/05/28 10:11:39;;;;;;;4.13;1.80;;;;;;;24.29;29.74;100322.56;10463904;28;20049;-74
2023/05/28 10:16:47;;;;;;;2.58;1.70;;;;;;;24.21;30.50;100315.16;10456562;23;20053;-70
2023/05/28 10:21:55;;;;;;;13.07;2.58;;;;;;;25.14;28.65;100317.91;10459403;28;20510;-70
2023/05/28 10:26:57;;;;;;;2.97;1.92;;;;;;;25.19;29.51;100306.75;10459168;28;20454;-71
2023/05/28 10:32:00;;;;;;;3.17;1.70;;;;;;;25.26;28.43;100297.13;10458155;28;20135;-70
2023/05/28 10:37:06;;;;;;;2.35;1.60;;;;;;;25.24;29.46;100295.59;10459698;28;20116;-71
2023/05/28 10:42:13;;;;;;;5.68;2.25;;;;;;;25.22;28.38;100295.69;10460461;28;20049;-70
2023/05/28 10:47:17;;;;;;;3.75;1.73;;;;;;;25.07;27.83;100303.28;10458588;28;20048;-69
2023/05/28 10:52:22;;;;;;;3.28;1.63;;;;;;;25.18;28.26;100299.66;10458348;28;20075;-69
2023/05/28 10:57:23;;;;;;;2.97;2.03;;;;;;;24.15;29.46;100300.41;10458831;28;20064;-69
2023/05/28 11:02:27;;;;;;;2.25;1.67;;;;;;;24.58;30.25;100291.41;10459796;28;20077;-69
2023/05/28 11:07:30;;;;;;;2.90;1.60;;;;;;;24.85;31.99;100284.63;10458224;28;20037;-70
2023/05/28 11:12:35;;;;;;;2.70;1.75;;;;;;;25.71;29.36;100285.06;10457216;28;20116;-70
2023/05/28 11:17:42;;;;;;;3.65;1.80;;;;;;;24.66;28.52;100283.56;10456651;28;20043;-70
2023/05/28 11:22:44;;;;;;;2.47;1.70;;;;;;;25.56;28.00;100276.53;10456537;28;20045;-70
2023/05/28 11:27:46;;;;;;;2.97;1.70;;;;;;;25.49;27.87;100286.16;10457414;28;20111;-70
2023/05/28 11:32:49;;;;;;;3.88;1.80;;;;;;;25.42;28.41;100281.31;10458199;28;20036;-71
2023/05/28 11:37:52;;;;;;;1.60;1.50;;;;;;;25.23;27.49;100283.09;10458005;28;20494;-72
2023/05/28 11:42:58;;;;;;;2.00;1.60;;;;;;;25.59;27.90;100279.81;10458083;28;20414;-71
2023/05/28 11:48:00;;;;;;;2.90;1.65;;;;;;;25.59;28.28;100277.13;10458121;28;20490;-70
2023/05/28 11:53:02;;;;;;;1.67;1.40;;;;;;;25.73;26.72;100266.94;10457800;28;20048;-70
2023/05/28 11:58:05;;;;;;;4.40;2.10;;;;;;;25.26;26.39;100270.22;10458282;28;20398;-71
2023/05/28 12:03:10;;;;;;;7.18;1.60;;;;;;;24.94;26.67;100266.84;10457525;28;20087;-70
2023/05/28 12:08:12;;;;;;;3.25;1.55;;;;;;;25.51;27.42;100262.66;10458759;28;20151;-70
2023/05/28 12:13:15;;;;;;;2.67;1.65;;;;;;;25.60;27.22;100254.59;10457820;28;20127;-70
2023/05/28 12:18:20;;;;;;;1.65;1.48;;;;;;;25.34;27.99;100265.00;10457112;28;20037;-70
2023/05/28 12:23:22;;;;;;;2.80;1.60;;;;;;;25.12;28.00;100258.00;10459438;28;20072;-70
2023/05/28 12:28:24;;;;;;;2.83;1.80;;;;;;;25.03;27.97;100250.72;10464332;28;20296;-70
2023/05/28 12:33:26;;;;;;;3.30;1.90;;;;;;;25.04;29.07;100241.66;10466310;28;20048;-70
2023/05/28 12:38:28;;;;;;;2.97;1.90;;;;;;;24.84;29.57;100242.59;10465598;28;20394;-71
2023/05/28 12:43:30;;;;;;;2.83;2.10;;;;;;;24.87;29.65;100237.78;10465583;28;20120;-70
2023/05/28 12:48:32;;;;;;;4.10;1.80;;;;;;;25.14;30.48;100237.19;10462698;28;20041;-71
2023/05/28 12:53:33;;;;;;;3.13;1.60;;;;;;;25.54;29.61;100241.66;10466850;28;20443;-71
2023/05/28 12:58:35;;;;;;;3.58;1.75;;;;;;;25.09;29.22;100238.59;10466191;28;20453;-71
2023/05/28 13:03:37;;;;;;;3.33;1.98;;;;;;;24.31;28.14;100234.66;10465643;28;20044;-71
2023/05/28 13:08:39;;;;;;;2.83;1.50;;;;;;;24.66;28.46;100231.63;10464648;28;20069;-71
2023/05/28 13:13:41;;;;;;;3.17;1.90;;;;;;;24.77;27.92;100212.69;10464558;28;20128;-70
2023/05/28 13:18:44;;;;;;;3.10;1.67;;;;;;;24.94;28.18;100221.13;10465454;28;20513;-70
2023/05/28 13:23:46;;;;;;;5.90;2.00;;;;;;;25.54;26.01;100208.53;10462658;28;20063;-70
2023/05/28 13:28:48;;;;;;;2.95;1.70;;;;;;;25.41;28.11;100214.16;10464776;28;20079;-70
2023/05/28 13:33:50;;;;;;;2.72;1.52;;;;;;;24.98;26.88;100209.13;10462903;28;20052;-72
2023/05/28 13:38:53;;;;;;;2.55;1.63;;;;;;;25.11;25.96;100210.59;10466601;28;20374;-71
2023/05/28 13:43:55;;;;;;;4.88;1.95;;;;;;;25.15;27.57;100208.47;10464424;28;20395;-73
2023/05/28 13:48:57;;;;;;;3.67;2.10;;;;;;;24.99;26.46;100194.66;10464319;28;20040;-71
2023/05/28 13:53:59;;;;;;;3.95;1.63;;;;;;;24.70;27.85;100184.66;10464259;28;20047;-71
2023/05/28 13:59:01;;;;;;;3.97;1.70;;;;;;;24.48;27.93;100182.16;10466117;28;20410;-71
2023/05/28 14:04:03;;;;;;;2.35;1.95;;;;;;;24.76;28.46;100183.28;10464534;28;20487;-71
2023/05/28 14:09:05;;;;;;;2.45;1.50;;;;;;;24.82;27.26;100182.72;10462689;28;20055;-70
2023/05/28 14:14:07;;;;;;;2.40;1.88;;;;;;;24.70;27.54;100187.34;10461618;28;20041;-70
2023/05/28 14:19:09;;;;;;;2.40;1.50;;;;;;;25.04;25.87;100185.19;10460078;28;20061;-70
2023/05/28 14:24:11;;;;;;;4.53;1.60;;;;;;;24.67;26.79;100177.72;10461929;28;20073;-71
2023/05/28 14:29:12;;;;;;;2.70;1.70;;;;;;;24.33;28.80;100168.19;10460397;28;20044;-71
2023/05/28 14:34:14;;;;;;;3.25;1.70;;;;;;;24.80;27.95;100165.91;10458782;28;20037;-72
2023/05/28 14:39:16;;;;;;;4.03;1.70;;;;;;;25.19;27.67;100163.31;10459759;28;20041;-71
2023/05/28 14:44:18;;;;;;;2.28;1.70;;;;;;;25.76;26.49;100151.72;10464132;28;20037;-71
2023/05/28 14:49:20;;;;;;;2.50;1.60;;;;;;;25.77;28.76;100147.22;10458806;28;20091;-71
2023/05/28 14:54:22;;;;;;;2.92;1.83;;;;;;;25.38;27.89;100152.59;10460056;28;20052;-72
2023/05/28 14:59:25;;;;;;;3.58;2.00;;;;;;;25.01;27.57;100153.19;10458936;28;20045;-70
2023/05/28 15:04:27;;;;;;;1.90;1.70;;;;;;;25.34;26.44;100140.41;10459748;28;20463;-70
2023/05/28 15:09:29;;;;;;;7.10;1.73;;;;;;;25.70;26.37;100148.75;10457397;28;20445;-70
2023/05/28 15:14:30;;;;;;;3.63;1.80;;;;;;;26.11;25.75;100147.56;10456932;28;20037;-70
2023/05/28 15:19:32;;;;;;;2.10;1.67;;;;;;;25.95;25.67;100142.78;10458133;28;20076;-72
2023/05/28 15:24:37;;;;;;;2.95;1.95;;;;;;;26.22;25.64;100150.09;10458982;28;20045;-70
2023/05/28 15:29:44;;;;;;;3.67;1.70;;;;;;;25.72;26.81;100144.94;10459746;28;20037;-70
2023/05/28 15:34:45;;;;;;;2.17;1.50;;;;;;;25.82;26.45;100136.88;10458568;28;20041;-71
2023/05/28 15:39:48;;;;;;;1.88;1.50;;;;;;;26.19;25.87;100130.69;10458614;28;20041;-72
2023/05/28 15:44:49;;;;;;;2.70;1.48;;;;;;;26.12;26.04;100130.44;10458197;28;20033;-71
2023/05/28 15:49:51;;;;;;;3.35;1.77;;;;;;;26.20;25.29;100125.13;10460645;28;20071;-71
2023/05/28 15:54:53;;;;;;;2.78;1.73;;;;;;;26.03;25.86;100125.88;10458295;28;20080;-70
2023/05/28 15:59:55;;;;;;;2.55;1.75;;;;;;;25.77;26.20;100128.38;10460967;28;20044;-70
2023/05/28 16:04:57;;;;;;;4.13;1.70;;;;;;;25.33;27.35;100114.50;10464989;28;20090;-70
2023/05/28 16:09:59;;;;;;;2.35;1.52;;;;;;;25.14;27.93;100126.91;10467969;28;20043;-70
2023/05/28 16:15:06;;;;;;;2.97;1.60;;;;;;;25.11;27.70;100121.84;10462813;22;20049;-71
2023/05/28 16:20:12;;;;;;;3.13;1.80;;;;;;;24.75;29.09;100115.22;10425840;28;20410;-70
2023/05/28 16:25:14;;;;;;;4.47;2.15;;;;;;;24.40;28.95;100115.69;10424804;28;20398;-69
2023/05/28 16:30:17;;;;;;;3.42;1.67;;;;;;;24.29;28.72;100111.19;10423044;28;20124;-71
2023/05/28 16:35:19;;;;;;;6.45;2.40;;;;;;;24.23;29.07;100110.91;10422548;28;20513;-69
2023/05/28 16:40:21;;;;;;;2.35;1.70;;;;;;;24.15;29.84;100112.41;10424340;28;20495;-69
2023/05/28 16:45:23;;;;;;;3.78;1.65;;;;;;;24.11;28.72;100110.97;10406752;28;20056;-69
2023/05/28 16:50:25;;;;;;;2.35;1.65;;;;;;;23.57;29.89;100113.88;10423315;28;20049;-70
2023/05/28 16:55:27;;;;;;;3.00;1.83;;;;;;;23.07;30.69;100103.72;10422667;28;20041;-70
2023/05/28 17:00:30;;;;;;;2.08;1.65;;;;;;;22.92;31.26;100107.63;10421850;28;20084;-71
2023/05/28 17:05:32;;;;;;;2.90;1.75;;;;;;;22.59;32.13;100101.34;10421634;28;20049;-71
2023/05/28 17:10:34;;;;;;;5.45;1.90;;;;;;;22.52;31.53;100105.50;10422012;28;20045;-71
2023/05/28 17:15:36;;;;;;;2.47;1.75;;;;;;;22.37;31.89;100094.19;10421824;28;20045;-70
2023/05/28 17:20:38;;;;;;;2.63;1.55;;;;;;;22.40;32.13;100088.59;10405363;28;20041;-69
2023/05/28 17:25:40;;;;;;;1.85;1.52;;;;;;;22.17;32.59;100093.06;10422576;28;20045;-72
2023/05/28 17:30:42;;;;;;;5.38;2.08;;;;;;;22.24;32.80;100093.47;10423151;28;20402;-70
2023/05/28 17:35:44;;;;;;;2.47;1.70;;;;;;;22.25;32.99;100094.31;10422409;28;20041;-70
2023/05/28 17:40:47;;;;;;;3.20;1.80;;;;;;;22.12;33.39;100091.75;10420307;28;20056;-70
2023/05/28 17:45:53;;;;;;;2.90;1.83;;;;;;;21.98;33.68;100098.16;10420066;28;20091;-70
2023/05/28 17:50:56;;;;;;;;;;;;;;;21.67;33.96;100105.03;10421071;28;20041;-70
2023/05/28 17:55:57;;;;;;;3.20;1.77;;;;;;;21.48;34.99;100097.56;10419993;28;19944;-70
2023/05/28 18:01:00;;;;;;;2.75;1.67;;;;;;;21.34;35.45;100098.63;10421062;28;20125;-70
2023/05/28 18:06:03;;;;;;;2.78;1.83;;;;;;;21.57;34.60;100109.38;10420608;28;20088;-70
2023/05/28 18:11:05;;;;;;;2.55;2.05;;;;;;;21.20;35.55;100111.25;10418713;28;20046;-71
2023/05/28 18:16:07;;;;;;;3.08;1.85;;;;;;;20.83;36.57;100104.16;10419775;28;20067;-72
2023/05/28 18:21:10;;;;;;;2.50;1.98;;;;;;;20.75;36.85;100105.69;10418179;28;20083;-71
2023/05/28 18:26:12;;;;;;;3.15;2.05;;;;;;;20.58;38.58;100107.75;10421076;28;20498;-71
2023/05/28 18:31:14;;;;;;;3.72;1.95;;;;;;;20.37;39.85;100102.13;10419205;28;20112;-70
2023/05/28 18:36:16;;;;;;;3.97;2.33;;;;;;;20.32;41.88;100108.72;10419838;28;20045;-72
2023/05/28 18:41:18;;;;;;;3.22;2.00;;;;;;;20.36;41.77;100116.44;10420258;28;20447;-71
2023/05/28 18:46:20;;;;;;;2.60;2.20;;;;;;;19.96;42.71;100120.19;10418319;28;20045;-71
2023/05/28 18:51:22;;;;;;;4.53;2.40;;;;;;;19.73;43.50;100129.75;10419520;28;20120;-71
2023/05/28 18:56:26;;;;;;;3.15;2.22;;;;;;;19.30;44.51;100130.81;10420535;28;20038;-71
2023/05/28 19:01:31;;;;;;;4.03;2.97;;;;;;;19.57;43.85;100132.59;10420075;28;20041;-71
2023/05/28 19:06:36;;;;;;;3.97;2.63;;;;;;;19.17;45.74;100135.25;10420256;28;20202;-72
2023/05/28 19:11:38;;;;;;;4.97;3.55;;;;;;;18.92;44.86;100146.66;10421869;28;20055;-70
2023/05/28 19:16:40;;;;;;;3.22;2.88;;;;;;;18.88;42.13;100145.13;10418503;28;20048;-71
2023/05/28 19:21:42;;;;;;;5.30;3.55;;;;;;;18.87;41.40;100157.59;10419378;28;20045;-71
2023/05/28 19:26:44;;;;;;;4.53;3.97;;;;;;;18.85;40.65;100151.50;10417957;28;20044;-71
2023/05/28 19:31:46;;;;;;;5.80;4.10;;;;;;;18.76;42.21;100164.56;10418211;28;20127;-71
2023/05/28 19:36:48;;;;;;;6.82;4.40;;;;;;;18.39;43.05;100173.00;10424879;28;20042;-71
2023/05/28 19:41:51;;;;;;;5.45;4.75;;;;;;;18.38;43.86;100173.13;10426843;28;20045;-70
2023/05/28 19:46:54;;;;;;;5.47;4.72;;;;;;;18.29;44.04;100177.19;10425723;28;20081;-70
2023/05/28 19:51:56;;;;;;;6.88;5.30;;;;;;;17.98;45.39;100178.22;10429000;28;20042;-70
2023/05/28 19:56:58;;;;;;;5.18;4.68;;;;;;;17.77;45.67;100187.47;10427883;28;20502;-70
2023/05/28 20:02:00;;;;;;;7.90;5.40;;;;;;;17.56;46.17;100186.88;10424487;28;20116;-70
2023/05/28 20:07:02;;;;;;;5.57;5.07;;;;;;;17.32;46.51;100197.13;10423736;28;20046;-70
2023/05/28 20:12:04;;;;;;;5.13;4.63;;;;;;;17.26;46.72;100203.63;10423833;28;20463;-71
2023/05/28 20:17:08;;;;;;;6.97;4.50;;;;;;;17.15;47.15;100212.22;10423031;28;20048;-70
2023/05/28 20:22:10;;;;;;;6.15;5.32;;;;;;;17.17;45.19;100212.13;10423579;28;20038;-70
2023/05/28 20:27:12;;;;;;;4.88;4.05;;;;;;;16.89;45.69;100210.16;10423287;28;20072;-70
2023/05/28 20:32:14;;;;;;;6.88;4.80;;;;;;;16.77;47.07;100213.47;10423063;28;20495;-70
2023/05/28 20:37:16;;;;;;;5.10;3.97;;;;;;;16.25;49.16;100221.56;10423046;28;20103;-70
2023/05/28 20:42:18;;;;;;;6.47;3.72;;;;;;;16.40;49.21;100215.41;10423246;28;20462;-70
2023/05/28 20:47:20;;;;;;;5.18;4.25;;;;;;;16.34;48.73;100211.31;10420686;28;20077;-71
2023/05/28 20:52:23;;;;;;;5.40;3.72;;;;;;;16.18;48.82;100217.50;10422340;28;20049;-70
2023/05/28 20:57:47;;;;;;;6.78;4.35;;;;;;;16.09;48.80;100217.03;10424442;28;20080;-70
2023/05/28 21:02:55;;;;;;;7.85;4.82;;;;;;;15.93;49.22;100216.09;10404987;28;20061;-71
2023/05/28 21:07:57;;;;;;;4.60;4.20;;;;;;;15.84;49.99;100219.19;10421972;28;20091;-70
2023/05/28 21:12:59;;;;;;;4.43;4.03;;;;;;;15.59;50.87;100227.50;10421977;28;20064;-70
2023/05/28 21:18:01;;;;;;;7.18;5.65;;;;;;;15.44;51.56;100230.88;10422060;28;20041;-70
2023/05/28 21:23:03;;;;;;;6.45;5.85;;;;;;;15.24;52.62;100242.47;10421473;28;20042;-70
2023/05/28 21:28:06;;;;;;;7.13;5.32;;;;;;;15.04;53.87;100233.66;10420953;28;20061;-72
2023/05/28 21:33:08;;;;;;;6.57;5.75;;;;;;;14.79;55.25;100230.44;10419809;28;20045;-71
2023/05/28 21:38:09;;;;;;;6.43;5.82;;;;;;;14.85;55.20;100232.81;10420294;28;20061;-71
2023/05/28 21:43:11;;;;;;;6.35;5.75;;;;;;;14.75;55.62;100232.38;10421563;28;20041;-70
2023/05/28 21:48:13;;;;;;;6.25;5.65;;;;;;;14.72;56.02;100232.50;10418716;28;20041;-70
2023/05/28 21:53:15;;;;;;;5.88;5.32;;;;;;;14.57;57.21;100227.91;10420329;28;20553;-70
2023/05/28 21:58:17;;;;;;;6.15;5.20;;;;;;;14.49;57.79;100230.91;10418908;28;20053;-70
2023/05/28 22:03:19;;;;;;;6.57;6.03;;;;;;;14.52;58.17;100237.81;10419320;28;20099;-71
2023/05/28 22:08:21;;;;;;;7.78;5.97;;;;;;;14.56;57.88;100228.81;10418085;28;20050;-71
2023/05/28 22:13:24;;;;;;;5.75;5.18;;;;;;;14.25;59.18;100243.38;10432166;22;20043;-69
2023/05/28 22:18:26;;;;;;;6.38;5.78;;;;;;;14.07;60.29;100233.59;10419266;28;20044;-69
2023/05/28 22:23:28;;;;;;;5.80;5.30;;;;;;;14.19;60.56;100230.44;10421033;28;20376;-69
2023/05/28 22:28:30;;;;;;;5.18;4.68;;;;;;;14.10;60.96;100234.31;10418918;28;20080;-69
2023/05/28 22:33:32;;;;;;;8.63;6.32;;;;;;;13.84;61.89;100227.50;10420813;28;20049;-69
2023/05/28 22:38:35;;;;;;;6.38;5.78;;;;;;;13.68;62.50;100236.13;10418872;28;20041;-68
2023/05/28 22:43:36;;;;;;;5.65;5.15;;;;;;;13.55;63.25;100238.44;10417469;28;20414;-68
2023/05/28 22:48:39;;;;;;;6.82;5.88;;;;;;;13.46;63.95;100244.97;10416612;28;20046;-69
2023/05/28 22:53:41;;;;;;;5.75;5.25;;;;;;;13.34;64.56;100234.88;10418438;28;20049;-69
2023/05/28 22:58:43;;;;;;;7.30;6.05;;;;;;;13.46;64.60;100239.69;10419050;28;20039;-69
2023/05/28 23:03:45;;;;;;;6.60;5.68;;;;;;;13.67;64.30;100247.63;10418217;28;20120;-69
2023/05/28 23:08:47;;;;;;;6.35;5.75;;;;;;;13.44;64.98;100244.13;10416821;28;20072;-69
2023/05/28 23:13:48;;;;;;;6.10;5.50;;;;;;;13.53;64.57;100253.47;10417286;28;20559;-69
2023/05/28 23:18:51;;;;;;;5.47;4.97;;;;;;;13.43;65.39;100260.91;10416739;28;20124;-69